createdAt,value
2019-02-26T00:03:31.441Z,7.03
2019-02-26T00:08:37.034Z,7.04
2019-02-26T00:13:43.198Z,6.98
2019-02-26T00:18:48.482Z,6.91
2019-02-26T00:23:53.725Z,6.87
2019-02-26T00:28:59.792Z,6.82
2019-02-26T00:34:08.161Z,6.82
2019-02-26T00:39:12.901Z,6.72
2019-02-26T00:44:18.616Z,6.58
2019-02-26T00:49:25.867Z,6.41
2019-02-26T00:54:33.858Z,6.28
2019-02-26T00:59:41.249Z,6.13
2019-02-26T01:04:46.732Z,6.09
2019-02-26T01:09:54.660Z,6.07
2019-02-26T01:15:02.574Z,5.90
2019-02-26T01:20:09.906Z,5.82
2019-02-26T01:25:17.742Z,5.98
2019-02-26T01:30:25.854Z,6.33
2019-02-26T01:35:30.747Z,6.55
2019-02-26T01:40:39.405Z,6.69
2019-02-26T01:45:44.017Z,6.74
2019-02-26T01:50:52.042Z,6.56
2019-02-26T01:55:57.006Z,6.60
2019-02-26T02:01:02.256Z,6.65
2019-02-26T02:06:10.611Z,6.64
2019-02-26T02:11:14.466Z,6.60
2019-02-26T02:16:19.736Z,6.69
2019-02-26T02:21:25.982Z,6.49
2019-02-26T02:26:32.140Z,6.33
2019-02-26T02:31:38.340Z,6.28
2019-02-26T02:36:44.305Z,6.35
2019-02-26T02:41:51.747Z,6.33
2019-02-26T02:46:58.371Z,6.06
2019-02-26T02:52:04.164Z,6.12
2019-02-26T02:57:10.394Z,6.12
2019-02-26T03:02:17.652Z,6.16
2019-02-26T03:07:23.554Z,6.12
2019-02-26T03:12:29.553Z,5.97
2019-02-26T03:17:34.858Z,5.85
2019-02-26T03:22:43.194Z,5.87
2019-02-26T03:27:47.063Z,5.95
2019-02-26T03:32:58.555Z,5.85
2019-02-26T03:38:01.322Z,5.81
2019-02-26T03:43:07.634Z,5.86
2019-02-26T03:48:12.922Z,6.18
2019-02-26T03:53:18.191Z,6.52
2019-02-26T03:58:23.376Z,6.61
2019-02-26T04:03:29.676Z,6.64
2019-02-26T04:08:35.541Z,6.71
2019-02-26T04:13:42.914Z,6.79
2019-02-26T04:18:51.068Z,6.77
2019-02-26T04:23:54.833Z,6.70
2019-02-26T04:29:22.182Z,6.71
2019-02-26T04:34:38.161Z,6.69
2019-02-26T04:39:49.581Z,6.67
2019-02-26T04:45:14.558Z,6.69
2019-02-26T04:50:23.076Z,6.69
2019-02-26T04:55:29.139Z,6.83
2019-02-26T05:00:37.978Z,6.94
2019-02-26T05:05:40.812Z,6.67
2019-02-26T05:10:46.981Z,6.51
2019-02-26T05:15:53.063Z,6.42
2019-02-26T05:20:59.308Z,6.39
2019-02-26T05:26:08.098Z,6.35
2019-02-26T05:31:14.473Z,6.29
2019-02-26T05:36:19.281Z,6.25
2019-02-26T05:41:24.562Z,6.23
2019-02-26T05:46:30.001Z,6.10
2019-02-26T05:51:36.060Z,6.05
2019-02-26T05:56:43.490Z,6.03
2019-02-26T06:01:52.553Z,6.02
2019-02-26T06:06:57.212Z,5.93
2019-02-26T06:12:03.085Z,5.93
2019-02-26T06:17:10.519Z,6.22
2019-02-26T06:22:18.171Z,6.32
2019-02-26T06:27:24.776Z,6.32
2019-02-26T06:32:31.975Z,6.40
2019-02-26T06:37:37.880Z,6.33
2019-02-26T06:42:43.092Z,6.34
2019-02-26T06:47:50.735Z,6.38
2019-02-26T06:52:55.297Z,6.50
2019-02-26T06:58:18.185Z,6.61
2019-02-26T07:03:24.806Z,6.70
2019-02-26T07:08:30.988Z,6.79
2019-02-26T07:13:38.578Z,6.82
2019-02-26T07:18:43.280Z,6.70
2019-02-26T07:23:48.535Z,6.70
2019-02-26T07:28:53.894Z,6.64
2019-02-26T07:34:01.355Z,6.87
2019-02-26T07:39:10.278Z,7.42
2019-02-26T07:44:18.119Z,8.06
2019-02-26T07:49:22.187Z,8.19
2019-02-26T07:54:28.856Z,7.78
2019-02-26T07:59:34.873Z,8.08
2019-02-26T08:04:43.512Z,8.19
2019-02-26T08:09:51.382Z,7.85
2019-02-26T08:14:56.602Z,7.49
2019-02-26T08:20:04.274Z,7.80
2019-02-26T08:25:10.005Z,8.01
2019-02-26T08:30:20.638Z,8.37
2019-02-26T08:35:24.142Z,8.56
2019-02-26T08:40:29.590Z,8.29
2019-02-26T08:45:35.006Z,8.49
2019-02-26T08:50:42.134Z,8.63
2019-02-26T08:55:47.283Z,8.86
2019-02-26T09:00:52.627Z,9.17
2019-02-26T09:06:10.181Z,9.60
2019-02-26T09:11:06.311Z,9.91
2019-02-26T09:16:11.720Z,10.02
2019-02-26T09:21:18.125Z,10.06
2019-02-26T09:26:24.888Z,10.36
2019-02-26T09:31:30.237Z,10.97
2019-02-26T09:36:35.486Z,11.55
2019-02-26T09:41:42.608Z,12.17
2019-02-26T09:46:50.742Z,12.53
2019-02-26T09:51:56.821Z,12.85
2019-02-26T09:57:02.974Z,13.51
2019-02-26T10:02:08.270Z,13.63
2019-02-26T10:07:14.398Z,13.90
2019-02-26T10:12:21.102Z,13.65
2019-02-26T10:17:26.390Z,13.78
2019-02-26T10:22:33.202Z,14.59
2019-02-26T10:27:40.586Z,14.37
2019-02-26T10:32:46.871Z,13.78
2019-02-26T10:37:54.013Z,13.80
2019-02-26T10:43:01.512Z,14.70
2019-02-26T10:48:06.666Z,14.91
2019-02-26T10:53:14.186Z,15.09
2019-02-26T10:58:19.121Z,14.63
2019-02-26T11:03:24.361Z,14.46
2019-02-26T11:08:32.228Z,14.91
2019-02-26T11:13:37.300Z,14.67
2019-02-26T11:18:44.955Z,14.73
2019-02-26T11:23:51.636Z,14.38
2019-02-26T11:28:57.031Z,14.51
2019-02-26T11:34:04.013Z,15.13
2019-02-26T11:39:12.705Z,15.40
2019-02-26T11:44:20.569Z,15.55
2019-02-26T11:49:25.073Z,15.80
2019-02-26T11:54:32.666Z,16.10
2019-02-26T11:59:38.600Z,16.68
2019-02-26T12:04:44.821Z,16.31
2019-02-26T12:09:50.131Z,16.04
2019-02-26T12:14:55.531Z,15.91
2019-02-26T12:20:00.950Z,16.28
2019-02-26T12:25:08.924Z,16.01
2019-02-26T12:30:18.126Z,16.61
2019-02-26T12:35:23.580Z,16.18
2019-02-26T12:40:28.881Z,16.03
2019-02-26T12:45:37.712Z,16.34
2019-02-26T12:50:41.200Z,16.10
2019-02-26T12:55:46.694Z,16.10
2019-02-26T13:00:52.122Z,15.04
2019-02-26T13:05:57.529Z,14.60
2019-02-26T13:11:02.851Z,15.02
2019-02-26T13:16:08.115Z,14.57
2019-02-26T13:21:16.418Z,14.47
2019-02-26T13:26:22.554Z,14.35
2019-02-26T13:31:27.276Z,14.68
2019-02-26T13:36:36.418Z,15.20
2019-02-26T13:41:39.878Z,14.89
2019-02-26T13:46:45.091Z,14.90
2019-02-26T13:51:52.205Z,15.08
2019-02-26T13:56:57.416Z,15.59
2019-02-26T14:02:02.823Z,15.51
2019-02-26T14:07:08.089Z,15.40
2019-02-26T14:12:14.261Z,15.14
2019-02-26T14:17:19.601Z,14.99
2019-02-26T14:22:25.114Z,14.98
2019-02-26T14:27:30.698Z,15.00
2019-02-26T14:32:36.146Z,14.77
2019-02-26T14:37:41.485Z,15.02
2019-02-26T14:42:46.701Z,15.11
2019-02-26T14:47:52.421Z,15.04
2019-02-26T14:52:57.755Z,14.67
2019-02-26T14:58:03.011Z,14.04
2019-02-26T15:03:08.517Z,13.87
2019-02-26T15:08:13.858Z,13.93
2019-02-26T15:13:19.326Z,14.24
2019-02-26T15:18:26.906Z,13.99
2019-02-26T15:23:32.256Z,13.64
2019-02-26T15:28:37.515Z,13.34
2019-02-26T15:33:42.857Z,13.33
2019-02-26T15:38:48.498Z,13.19
2019-02-26T15:43:54.509Z,13.15
2019-02-26T15:49:00.685Z,12.79
2019-02-26T15:54:05.991Z,12.78
2019-02-26T15:59:11.538Z,12.56
2019-02-26T16:04:16.934Z,12.69
2019-02-26T16:09:22.326Z,12.30
2019-02-26T16:14:27.757Z,12.01
2019-02-26T16:19:33.126Z,11.89
2019-02-26T16:24:38.634Z,11.89
2019-02-26T16:29:43.923Z,11.64
2019-02-26T16:34:52.308Z,11.43
2019-02-26T16:39:58.180Z,11.23
2019-02-26T16:45:03.547Z,11.11
2019-02-26T16:50:13.224Z,11.03
2019-02-26T16:55:17.880Z,10.86
2019-02-26T17:00:24.422Z,10.72
2019-02-26T17:05:30.057Z,10.62
2019-02-26T17:10:35.781Z,10.48
2019-02-26T17:15:41.155Z,10.37
2019-02-26T17:20:46.851Z,10.21
2019-02-26T17:25:52.340Z,10.05
2019-02-26T17:30:58.338Z,9.90
2019-02-26T17:36:03.960Z,9.73
2019-02-26T17:41:09.978Z,9.57
2019-02-26T17:46:16.378Z,9.42
2019-02-26T17:51:21.710Z,9.30
2019-02-26T17:56:28.797Z,9.19
2019-02-26T18:01:34.097Z,9.06
2019-02-26T18:06:39.535Z,8.94
2019-02-26T18:11:44.909Z,8.79
2019-02-26T18:16:50.238Z,8.67
2019-02-26T18:21:55.536Z,8.52
2019-02-26T18:27:01.117Z,8.40
2019-02-26T18:32:06.417Z,8.28
2019-02-26T18:37:12.057Z,8.20
2019-02-26T18:42:17.316Z,8.15
2019-02-26T18:47:23.417Z,8.12
2019-02-26T18:52:28.656Z,8.09
2019-02-26T18:57:36.856Z,8.06
2019-02-26T19:02:42.287Z,7.94
2019-02-26T19:07:50.658Z,7.93
2019-02-26T19:12:55.957Z,7.90
2019-02-26T19:18:02.660Z,7.87
2019-02-26T19:23:08.478Z,7.82
2019-02-26T19:28:13.816Z,7.78
2019-02-26T19:33:21.782Z,7.71
2019-02-26T19:38:27.661Z,7.72
2019-02-26T19:43:33.543Z,7.63
2019-02-26T19:48:39.258Z,7.84
2019-02-26T19:53:44.639Z,7.86
2019-02-26T19:58:50.030Z,7.64
2019-02-26T20:03:55.559Z,7.42
2019-02-26T20:09:01.073Z,7.43
2019-02-26T20:14:06.416Z,7.31
2019-02-26T20:19:11.817Z,6.89
2019-02-26T20:24:18.058Z,6.87
2019-02-26T20:29:23.577Z,7.14
2019-02-26T20:34:28.995Z,7.27
2019-02-26T20:39:34.657Z,7.26
2019-02-26T20:44:42.819Z,6.98
2019-02-26T20:49:47.076Z,6.88
2019-02-26T20:54:52.337Z,6.99
2019-02-26T20:59:57.636Z,7.09
2019-02-26T21:05:02.918Z,7.06
2019-02-26T21:10:08.937Z,7.09
2019-02-26T21:15:16.280Z,7.13
2019-02-26T21:20:21.619Z,7.07
2019-02-26T21:25:27.114Z,7.22
2019-02-26T21:30:32.449Z,7.32
2019-02-26T21:35:37.894Z,7.35
2019-02-26T21:40:43.319Z,7.42
2019-02-26T21:45:49.360Z,7.37
2019-02-26T21:50:55.404Z,7.32
2019-02-26T21:56:00.838Z,6.87
2019-02-26T22:01:06.237Z,6.87
2019-02-26T22:06:11.660Z,6.80
2019-02-26T22:11:18.442Z,6.85
2019-02-26T22:16:24.038Z,6.84
2019-02-26T22:21:31.350Z,6.92
2019-02-26T22:26:36.749Z,7.06
2019-02-26T22:31:42.077Z,7.06
2019-02-26T22:36:47.573Z,6.72
2019-02-26T22:41:53.026Z,6.64
2019-02-26T22:46:59.162Z,6.83
2019-02-26T22:52:04.677Z,7.00
2019-02-26T22:57:10.018Z,7.04
2019-02-26T23:02:15.516Z,6.96
2019-02-26T23:07:20.988Z,6.84
2019-02-26T23:12:26.642Z,6.79
2019-02-26T23:17:32.017Z,6.57
2019-02-26T23:22:38.497Z,6.19
2019-02-26T23:27:46.099Z,6.14
2019-02-26T23:32:50.997Z,5.93
2019-02-26T23:37:57.276Z,6.04
2019-02-26T23:43:02.537Z,6.23
2019-02-26T23:48:08.641Z,6.41
2019-02-26T23:53:14.194Z,6.55
2019-02-26T23:58:19.602Z,6.68
